Time;durP1;ratioP1;P1;durP2;ratioP2;P2;SDS_P1;SDS_P2;PMS_P1;PMS_P2;Temp;Humidity;BMP_temperature;BMP_pressure;BME280_temperature;BME280_humidity;BME280_pressure;Samples;Min_cycle;Max_cycle;Signal;HPM_P1;HPM_P2
2021/10/03 00:00:11;;;;;;;3.10;2.60;;;;;;;;;;6188599;28;20514;-84
2021/10/03 00:03:16;;;;;;;3.58;2.63;;;;;;;;;;6189585;28;20163;-83
2021/10/03 00:06:18;;;;;;;4.53;2.97;;;;;;;;;;6190841;28;20066;-84
2021/10/03 00:09:21;;;;;;;4.43;2.58;;;;;;;;;;6173282;28;20185;-84
2021/10/03 00:12:23;;;;;;;4.45;2.90;;;;;;;;;;6189182;28;20046;-83
2021/10/03 00:15:24;;;;;;;3.63;2.88;;;;;;;;;;6221450;28;20523;-84
2021/10/03 00:18:27;;;;;;;3.10;2.70;;;;;;;;;;6188210;28;20111;-84
2021/10/03 00:21:28;;;;;;;4.33;2.63;;;;;;;;;;6205633;28;20124;-84
2021/10/03 00:24:30;;;;;;;5.45;3.10;;;;;;;;;;6190100;28;20052;-84
2021/10/03 00:27:32;;;;;;;4.65;2.85;;;;;;;;;;6221992;28;20567;-84
2021/10/03 00:30:36;;;;;;;4.50;2.83;;;;;;;;;;6191352;28;20541;-84
2021/10/03 00:33:38;;;;;;;5.38;3.05;;;;;;;;;;6223054;28;20057;-83
2021/10/03 00:36:40;;;;;;;4.60;3.03;;;;;;;;;;6191906;28;20051;-84
2021/10/03 00:39:42;;;;;;;4.07;2.88;;;;;;;;;;6223369;28;20054;-84
2021/10/03 00:42:44;;;;;;;3.80;2.58;;;;;;;;;;6216321;28;20415;-83
2021/10/03 00:45:45;;;;;;;4.15;3.03;;;;;;;;;;6174852;28;20423;-86
2021/10/03 00:48:47;;;;;;;4.18;2.90;;;;;;;;;;6205943;28;20045;-85
2021/10/03 00:51:49;;;;;;;4.32;2.75;;;;;;;;;;6222573;28;20072;-84
2021/10/03 00:54:50;;;;;;;4.13;3.03;;;;;;;;;;6181602;28;20049;-85
2021/10/03 00:57:52;;;;;;;7.10;3.13;;;;;;;;;;6199211;28;20049;-84
2021/10/03 01:00:54;;;;;;;5.70;3.15;;;;;;;;;;6168131;28;20125;-85
2021/10/03 01:03:56;;;;;;;4.33;3.23;;;;;;;;;;6220602;28;20042;-85
2021/10/03 01:06:58;;;;;;;4.32;3.10;;;;;;;;;;6190626;28;20121;-84
2021/10/03 01:10:00;;;;;;;6.38;3.40;;;;;;;;;;6206306;28;20177;-84
2021/10/03 01:13:12;;;;;;;5.72;3.78;;;;;;;;;;6192589;28;20038;-84
2021/10/03 01:16:15;;;;;;;4.65;3.45;;;;;;;;;;6205309;28;20046;-84
2021/10/03 01:19:18;;;;;;;5.22;3.28;;;;;;;;;;6189094;28;20124;-85
2021/10/03 01:22:20;;;;;;;6.75;4.45;;;;;;;;;;6175227;28;20100;-85
2021/10/03 01:25:22;;;;;;;6.22;3.50;;;;;;;;;;6175690;28;20042;-84
2021/10/03 01:28:24;;;;;;;5.05;3.55;;;;;;;;;;6229287;28;20046;-85
2021/10/03 01:31:30;;;;;;;4.77;3.43;;;;;;;;;;6227807;28;20046;-84
2021/10/03 01:34:31;;;;;;;5.22;3.67;;;;;;;;;;6211238;28;20054;-84
2021/10/03 01:37:35;;;;;;;7.43;3.55;;;;;;;;;;6210859;28;20054;-85
2021/10/03 01:40:36;;;;;;;5.63;3.78;;;;;;;;;;6174784;28;20039;-84
2021/10/03 01:43:38;;;;;;;6.53;4.30;;;;;;;;;;6196998;28;20046;-85
2021/10/03 01:46:41;;;;;;;6.80;4.40;;;;;;;;;;6191807;28;20056;-85
2021/10/03 01:49:46;;;;;;;;;;;;;;;;;;6198683;28;20116;-85
2021/10/03 01:52:48;;;;;;;6.45;4.15;;;;;;;;;;6197368;28;19989;-83
2021/10/03 01:55:50;;;;;;;5.97;3.90;;;;;;;;;;6194076;28;20051;-83
2021/10/03 01:58:58;;;;;;;8.02;4.10;;;;;;;;;;6198543;28;20038;-84
2021/10/03 02:02:00;;;;;;;6.55;4.40;;;;;;;;;;6193447;28;20522;-84
2021/10/03 02:05:03;;;;;;;5.85;4.30;;;;;;;;;;6228337;28;20090;-84
2021/10/03 02:08:09;;;;;;;5.65;3.92;;;;;;;;;;6197657;28;20050;-85
2021/10/03 02:11:11;;;;;;;6.95;4.28;;;;;;;;;;6192641;28;20556;-84
2021/10/03 02:14:14;;;;;;;5.72;4.13;;;;;;;;;;6229262;28;20488;-84
2021/10/03 02:17:15;;;;;;;;;;;;;;;;;;6195031;28;20050;-84
2021/10/03 02:20:18;;;;;;;7.85;4.30;;;;;;;;;;6209858;28;19936;-83
2021/10/03 02:23:20;;;;;;;5.50;3.85;;;;;;;;;;6194506;28;20514;-83
2021/10/03 02:26:22;;;;;;;7.80;4.67;;;;;;;;;;6190791;28;20125;-84
2021/10/03 02:29:24;;;;;;;7.43;4.57;;;;;;;;;;6194108;28;20472;-83
2021/10/03 02:32:30;;;;;;;7.18;4.30;;;;;;;;;;6165598;28;20042;-85
2021/10/03 02:35:32;;;;;;;6.95;4.22;;;;;;;;;;6171221;28;20042;-83
2021/10/03 02:38:35;;;;;;;7.63;4.90;;;;;;;;;;6188248;28;20050;-83
2021/10/03 02:41:37;;;;;;;7.35;4.93;;;;;;;;;;6189573;28;20058;-83
2021/10/03 02:44:39;;;;;;;8.25;4.85;;;;;;;;;;6181656;28;20407;-84
2021/10/03 02:47:41;;;;;;;8.13;4.78;;;;;;;;;;6177718;28;20046;-84
2021/10/03 02:50:42;;;;;;;8.35;4.80;;;;;;;;;;6178166;28;20134;-83
2021/10/03 02:53:47;;;;;;;6.28;4.85;;;;;;;;;;6195864;28;20042;-84
2021/10/03 02:56:48;;;;;;;7.30;4.70;;;;;;;;;;6175742;28;20042;-83
2021/10/03 02:59:50;;;;;;;7.82;4.70;;;;;;;;;;6194714;28;20042;-83
2021/10/03 03:02:52;;;;;;;6.88;4.50;;;;;;;;;;6195589;28;20066;-83
2021/10/03 03:05:53;;;;;;;6.63;4.70;;;;;;;;;;6197378;28;20488;-85
2021/10/03 03:08:55;;;;;;;6.15;4.80;;;;;;;;;;6193279;28;20511;-83
2021/10/03 03:11:56;;;;;;;7.32;4.50;;;;;;;;;;6185759;28;20047;-83
2021/10/03 03:14:58;;;;;;;6.57;4.30;;;;;;;;;;6192428;28;20073;-83
2021/10/03 03:18:00;;;;;;;7.18;4.75;;;;;;;;;;6178818;28;20045;-83
2021/10/03 03:21:02;;;;;;;7.32;4.65;;;;;;;;;;6191804;28;20415;-83
2021/10/03 03:24:05;;;;;;;7.88;4.78;;;;;;;;;;6189880;28;20046;-84
2021/10/03 03:27:08;;;;;;;6.85;4.43;;;;;;;;;;6174126;28;20046;-84
2021/10/03 03:30:11;;;;;;;6.67;4.30;;;;;;;;;;6193046;28;20042;-85
2021/10/03 03:33:14;;;;;;;7.00;4.55;;;;;;;;;;6223766;28;20859;-83
2021/10/03 03:36:16;;;;;;;7.95;4.22;;;;;;;;;;6193564;28;20065;-83
2021/10/03 03:39:18;;;;;;;6.47;4.60;;;;;;;;;;6193914;28;20056;-83
2021/10/03 03:42:20;;;;;;;5.78;4.10;;;;;;;;;;6189714;28;20050;-84
2021/10/03 03:45:21;;;;;;;6.65;4.40;;;;;;;;;;6193108;28;20052;-84
2021/10/03 03:48:23;;;;;;;6.93;4.35;;;;;;;;;;6186215;28;20054;-83
2021/10/03 03:51:25;;;;;;;8.25;4.65;;;;;;;;;;6192293;28;20053;-84
2021/10/03 03:54:26;;;;;;;6.57;4.22;;;;;;;;;;6194118;28;20038;-84
2021/10/03 03:57:28;;;;;;;5.85;4.13;;;;;;;;;;6190360;28;20042;-85
2021/10/03 04:00:29;;;;;;;7.97;4.80;;;;;;;;;;6168883;28;20455;-83
2021/10/03 04:03:31;;;;;;;6.00;4.38;;;;;;;;;;6183977;28;20049;-84
2021/10/03 04:06:33;;;;;;;8.93;4.63;;;;;;;;;;6168722;28;20043;-84
2021/10/03 04:09:35;;;;;;;5.75;4.55;;;;;;;;;;6182689;28;20122;-83
2021/10/03 04:12:36;;;;;;;6.60;4.30;;;;;;;;;;6214984;28;20035;-83
2021/10/03 04:15:38;;;;;;;7.47;4.53;;;;;;;;;;6191161;28;20069;-83
2021/10/03 04:18:40;;;;;;;8.45;4.70;;;;;;;;;;6190630;28;20046;-83
2021/10/03 04:21:41;;;;;;;7.45;4.65;;;;;;;;;;6192342;28;20420;-82
2021/10/03 04:24:43;;;;;;;7.88;4.53;;;;;;;;;;6188732;28;20046;-84
2021/10/03 04:27:44;;;;;;;7.50;4.72;;;;;;;;;;6190299;28;20484;-83
2021/10/03 04:30:46;;;;;;;6.22;4.47;;;;;;;;;;6212156;28;20133;-83
2021/10/03 04:33:48;;;;;;;6.43;4.25;;;;;;;;;;6188865;28;20085;-83
2021/10/03 04:36:51;;;;;;;6.35;4.30;;;;;;;;;;6207046;28;20046;-84
2021/10/03 04:39:52;;;;;;;;;;;;;;;;;;6190057;28;20046;-83
2021/10/03 04:42:54;;;;;;;8.73;4.40;;;;;;;;;;6207218;28;20490;-83
2021/10/03 04:45:55;;;;;;;5.55;4.10;;;;;;;;;;6191968;28;20129;-83
2021/10/03 04:48:57;;;;;;;7.40;4.25;;;;;;;;;;6188070;28;20050;-85
2021/10/03 04:51:58;;;;;;;5.30;4.05;;;;;;;;;;6188593;28;20064;-84
2021/10/03 04:55:01;;;;;;;5.20;3.92;;;;;;;;;;6189321;28;20050;-84
2021/10/03 04:58:02;;;;;;;6.05;4.40;;;;;;;;;;6195304;28;20131;-84
2021/10/03 05:01:04;;;;;;;7.28;4.38;;;;;;;;;;6186718;28;20042;-83
2021/10/03 05:04:05;;;;;;;7.70;4.38;;;;;;;;;;6161493;28;20050;-83
2021/10/03 05:07:07;;;;;;;6.70;3.80;;;;;;;;;;6181038;28;20063;-84
2021/10/03 05:10:09;;;;;;;6.47;4.18;;;;;;;;;;6189585;28;20045;-83
2021/10/03 05:13:11;;;;;;;4.30;3.88;;;;;;;;;;6227071;28;20106;-83
2021/10/03 05:16:12;;;;;;;7.10;4.00;;;;;;;;;;6176558;28;20046;-82
2021/10/03 05:19:15;;;;;;;6.27;4.10;;;;;;;;;;6213877;28;20087;-83
2021/10/03 05:22:16;;;;;;;9.10;4.23;;;;;;;;;;6179959;28;20043;-83
2021/10/03 05:25:18;;;;;;;6.35;4.22;;;;;;;;;;6190262;28;20065;-84
2021/10/03 05:28:20;;;;;;;5.75;4.25;;;;;;;;;;6226893;28;20057;-84
2021/10/03 05:31:23;;;;;;;7.38;4.80;;;;;;;;;;6197639;28;20047;-83
2021/10/03 05:34:25;;;;;;;6.15;4.05;;;;;;;;;;6193152;28;20042;-83
2021/10/03 05:37:26;;;;;;;5.68;3.97;;;;;;;;;;6180812;28;20105;-84
2021/10/03 05:40:29;;;;;;;5.07;4.30;;;;;;;;;;6191577;28;20047;-83
2021/10/03 05:43:31;;;;;;;5.15;3.90;;;;;;;;;;6192326;28;20042;-83
2021/10/03 05:46:33;;;;;;;6.30;4.30;;;;;;;;;;6190783;28;20098;-83
2021/10/03 05:49:34;;;;;;;7.35;4.00;;;;;;;;;;6199491;28;20068;-84
2021/10/03 05:52:36;;;;;;;4.53;3.67;;;;;;;;;;6194971;28;20048;-83
2021/10/03 05:55:38;;;;;;;5.05;3.58;;;;;;;;;;6192181;28;20109;-82
2021/10/03 05:58:39;;;;;;;5.72;3.70;;;;;;;;;;6184364;28;20553;-85
2021/10/03 06:01:41;;;;;;;5.35;3.75;;;;;;;;;;6206585;28;20058;-82
2021/10/03 06:04:44;;;;;;;5.20;4.00;;;;;;;;;;6193829;28;20514;-83
2021/10/03 06:07:49;;;;;;;4.43;3.80;;;;;;;;;;6227290;28;20049;-82
2021/10/03 06:10:51;;;;;;;4.55;3.72;;;;;;;;;;6192023;28;20053;-83
2021/10/03 06:13:53;;;;;;;4.60;3.65;;;;;;;;;;6198455;28;20057;-83
2021/10/03 06:16:55;;;;;;;5.63;3.92;;;;;;;;;;6192047;28;20054;-85
2021/10/03 06:19:56;;;;;;;5.05;3.72;;;;;;;;;;6216302;28;20061;-84
2021/10/03 06:22:58;;;;;;;6.47;3.75;;;;;;;;;;6213749;28;20053;-85
2021/10/03 06:26:00;;;;;;;6.75;4.10;;;;;;;;;;6195479;28;20088;-82
2021/10/03 06:29:03;;;;;;;5.53;3.65;;;;;;;;;;6195817;28;20177;-84
2021/10/03 06:32:05;;;;;;;5.20;3.30;;;;;;;;;;6188041;28;20042;-85
2021/10/03 06:35:07;;;;;;;5.33;3.33;;;;;;;;;;6193679;28;20057;-83
2021/10/03 06:38:08;;;;;;;7.95;5.85;;;;;;;;;;6192232;28;20065;-84
2021/10/03 06:41:10;;;;;;;7.05;3.92;;;;;;;;;;6189210;28;20518;-84
2021/10/03 06:44:11;;;;;;;4.63;3.28;;;;;;;;;;6195090;28;20158;-85
2021/10/03 06:47:13;;;;;;;5.57;3.55;;;;;;;;;;6205197;28;20066;-84
2021/10/03 06:50:17;;;;;;;4.35;3.38;;;;;;;;;;6200330;28;20050;-85
2021/10/03 06:53:18;;;;;;;3.95;3.10;;;;;;;;;;6200525;28;20041;-86
2021/10/03 06:56:20;;;;;;;3.90;3.22;;;;;;;;;;6215197;28;20041;-85
2021/10/03 06:59:21;;;;;;;4.80;4.10;;;;;;;;;;6200161;28;20062;-84
2021/10/03 07:02:25;;;;;;;8.10;4.72;;;;;;;;;;6211470;28;20117;-83
2021/10/03 07:05:27;;;;;;;5.95;3.60;;;;;;;;;;6200311;28;20141;-83
2021/10/03 07:08:31;;;;;;;4.40;3.05;;;;;;;;;;6204630;28;20142;-84
2021/10/03 07:11:32;;;;;;;4.78;2.92;;;;;;;;;;6234858;28;20069;-83
2021/10/03 07:14:34;;;;;;;6.45;3.75;;;;;;;;;;6204721;28;20081;-84
2021/10/03 07:17:36;;;;;;;8.63;3.47;;;;;;;;;;6201583;28;20042;-84
2021/10/03 07:20:39;;;;;;;5.03;3.10;;;;;;;;;;6204311;28;20073;-84
2021/10/03 07:23:40;;;;;;;5.72;3.00;;;;;;;;;;6186041;28;20057;-83
2021/10/03 07:26:43;;;;;;;3.78;3.03;;;;;;;;;;6198064;28;20053;-85
2021/10/03 07:29:44;;;;;;;4.93;3.38;;;;;;;;;;6197843;28;20046;-84
2021/10/03 07:32:46;;;;;;;4.25;3.15;;;;;;;;;;6202738;28;20518;-83
2021/10/03 07:35:48;;;;;;;4.63;3.67;;;;;;;;;;6205061;28;20062;-82
2021/10/03 07:38:49;;;;;;;5.03;3.60;;;;;;;;;;6203027;28;20438;-84
2021/10/03 07:41:52;;;;;;;5.00;3.63;;;;;;;;;;6201679;28;20070;-84
2021/10/03 07:44:53;;;;;;;5.63;3.30;;;;;;;;;;6201959;28;20126;-83
2021/10/03 07:47:55;;;;;;;6.85;3.70;;;;;;;;;;6199415;28;20430;-84
2021/10/03 07:50:56;;;;;;;5.70;3.30;;;;;;;;;;6201914;28;20133;-83
2021/10/03 07:53:58;;;;;;;6.63;3.75;;;;;;;;;;6215060;28;20154;-83
2021/10/03 07:57:00;;;;;;;6.35;3.72;;;;;;;;;;6227902;28;20082;-83
2021/10/03 08:00:04;;;;;;;6.32;3.80;;;;;;;;;;6200457;28;20046;-82
2021/10/03 08:03:09;;;;;;;7.78;4.10;;;;;;;;;;6196201;28;20049;-82
2021/10/03 08:06:11;;;;;;;6.35;3.70;;;;;;;;;;6196183;28;20042;-82
2021/10/03 08:09:15;;;;;;;5.40;3.30;;;;;;;;;;6200201;28;20048;-84
2021/10/03 08:12:17;;;;;;;5.63;3.65;;;;;;;;;;6204897;28;20415;-82
2021/10/03 08:15:22;;;;;;;7.50;3.75;;;;;;;;;;6202742;28;20042;-84
2021/10/03 08:18:23;;;;;;;11.75;4.72;;;;;;;;;;6177547;28;20046;-80
2021/10/03 08:21:27;;;;;;;41.72;11.68;;;;;;;;;;6192884;28;20415;-81
2021/10/03 08:24:29;;;;;;;8.25;3.75;;;;;;;;;;6192128;28;20034;-81
2021/10/03 08:27:35;;;;;;;5.80;3.40;;;;;;;;;;6176438;28;20100;-80
2021/10/03 08:30:36;;;;;;;5.60;3.58;;;;;;;;;;6184843;28;20054;-79
2021/10/03 08:33:38;;;;;;;4.55;3.22;;;;;;;;;;6170411;28;20042;-81
2021/10/03 08:36:40;;;;;;;4.82;3.17;;;;;;;;;;6174827;28;20177;-80
2021/10/03 08:39:43;;;;;;;9.23;4.43;;;;;;;;;;6209539;28;20577;-81
2021/10/03 08:42:44;;;;;;;4.30;3.30;;;;;;;;;;6190727;28;20523;-81
2021/10/03 08:45:46;;;;;;;3.55;3.10;;;;;;;;;;6214748;28;20077;-81
2021/10/03 08:48:49;;;;;;;5.95;3.22;;;;;;;;;;6159877;28;20042;-78
2021/10/03 08:51:50;;;;;;;3.05;2.75;;;;;;;;;;6177249;28;20509;-78
2021/10/03 08:54:52;;;;;;;7.75;4.40;;;;;;;;;;6192930;28;20101;-78
2021/10/03 08:57:54;;;;;;;3.53;2.90;;;;;;;;;;6185951;28;20389;-79
2021/10/03 09:00:55;;;;;;;6.30;3.92;;;;;;;;;;6186318;28;20046;-80
2021/10/03 09:04:00;;;;;;;5.20;3.20;;;;;;;;;;6183046;28;20625;-81
2021/10/03 09:07:05;;;;;;;4.20;3.13;;;;;;;;;;6187099;28;20449;-81
2021/10/03 09:10:07;;;;;;;6.57;3.88;;;;;;;;;;6183901;28;20042;-82
2021/10/03 09:13:08;;;;;;;5.00;3.60;;;;;;;;;;6185412;28;20049;-83
2021/10/03 09:16:13;;;;;;;4.82;3.45;;;;;;;;;;6219873;28;20054;-83
2021/10/03 09:19:14;;;;;;;4.82;3.20;;;;;;;;;;6185880;28;20050;-83
2021/10/03 09:22:16;;;;;;;4.28;3.28;;;;;;;;;;6218835;28;20042;-83
2021/10/03 09:25:41;;;;;;;4.95;3.20;;;;;;;;;;6182357;28;20404;-83
2021/10/03 09:28:43;;;;;;;5.10;3.33;;;;;;;;;;6175627;28;20050;-83
2021/10/03 09:32:14;;;;;;;4.45;3.33;;;;;;;;;;6184748;28;20038;-85
2021/10/03 09:35:15;;;;;;;6.15;4.13;;;;;;;;;;6199184;28;20046;-83
2021/10/03 09:38:17;;;;;;;5.73;2.83;;;;;;;;;;6186898;28;20049;-84
2021/10/03 09:41:22;;;;;;;6.18;4.00;;;;;;;;;;6185683;28;20042;-82
2021/10/03 09:44:24;;;;;;;5.05;3.20;;;;;;;;;;6208531;28;20737;-82
2021/10/03 09:47:25;;;;;;;5.57;3.33;;;;;;;;;;6193800;28;20056;-81
2021/10/03 09:50:27;;;;;;;5.80;3.63;;;;;;;;;;6207390;28;20042;-84
2021/10/03 09:53:29;;;;;;;6.30;4.03;;;;;;;;;;6196235;28;20750;-84
2021/10/03 09:56:32;;;;;;;6.38;3.92;;;;;;;;;;6191642;28;20100;-83
2021/10/03 09:59:33;;;;;;;4.97;3.72;;;;;;;;;;6199200;28;20053;-83
2021/10/03 10:02:35;;;;;;;4.95;3.03;;;;;;;;;;6199098;28;20048;-86
2021/10/03 10:05:37;;;;;;;5.53;3.78;;;;;;;;;;6215465;28;20125;-85
2021/10/03 10:08:39;;;;;;;4.87;3.60;;;;;;;;;;6182134;28;20054;-82
2021/10/03 10:11:52;;;;;;;6.82;3.80;;;;;;;;;;6176241;28;20744;-83
2021/10/03 10:15:05;;;;;;;5.10;3.55;;;;;;;;;;6188040;28;20046;-83
2021/10/03 10:18:24;;;;;;;4.70;3.30;;;;;;;;;;6228553;28;20056;-83
2021/10/03 10:21:26;;;;;;;5.00;3.10;;;;;;;;;;6197057;28;20179;-83
2021/10/03 10:24:43;;;;;;;5.32;3.13;;;;;;;;;;6231316;28;20085;-83
2021/10/03 10:27:44;;;;;;;6.25;3.42;;;;;;;;;;6213709;28;20082;-83
2021/10/03 10:31:13;;;;;;;3.75;2.83;;;;;;;;;;6198749;28;20566;-83
2021/10/03 10:34:15;;;;;;;5.85;3.75;;;;;;;;;;6194449;28;20046;-83
2021/10/03 10:37:16;;;;;;;4.88;3.20;;;;;;;;;;6197050;28;20046;-82
2021/10/03 10:40:21;;;;;;;4.60;3.63;;;;;;;;;;6191412;28;20604;-82
2021/10/03 10:43:38;;;;;;;5.45;3.05;;;;;;;;;;6207338;28;20046;-82
2021/10/03 10:46:51;;;;;;;4.03;3.13;;;;;;;;;;6180469;28;20471;-83
2021/10/03 10:49:54;;;;;;;5.10;3.80;;;;;;;;;;6174846;28;20129;-83
2021/10/03 10:53:14;;;;;;;5.32;3.92;;;;;;;;;;6180267;28;20416;-85
2021/10/03 10:56:24;;;;;;;3.60;2.80;;;;;;;;;;6176443;28;20046;-84
2021/10/03 10:59:26;;;;;;;4.90;3.78;;;;;;;;;;6181974;28;20050;-85
2021/10/03 11:02:59;;;;;;;3.97;3.08;;;;;;;;;;6184071;28;20055;-84
2021/10/03 11:06:01;;;;;;;4.10;3.00;;;;;;;;;;6182260;28;20518;-84
2021/10/03 11:09:13;;;;;;;3.92;2.95;;;;;;;;;;6179794;28;20167;-86
2021/10/03 11:12:28;;;;;;;3.58;2.97;;;;;;;;;;6187506;28;20046;-83
2021/10/03 11:15:33;;;;;;;5.68;3.70;;;;;;;;;;6196685;28;20058;-84
2021/10/03 11:18:48;;;;;;;5.63;4.07;;;;;;;;;;6193575;28;20061;-81
2021/10/03 11:21:55;;;;;;;5.53;3.67;;;;;;;;;;6191441;28;20070;-83
2021/10/03 11:24:58;;;;;;;5.50;4.00;;;;;;;;;;6222182;28;20205;-83
2021/10/03 11:27:59;;;;;;;13.93;6.75;;;;;;;;;;6185658;28;20054;-82
2021/10/03 11:31:13;;;;;;;4.65;3.30;;;;;;;;;;6186088;28;20042;-84
2021/10/03 11:34:48;;;;;;;10.30;5.60;;;;;;;;;;6199476;28;20069;-84
2021/10/03 11:38:00;;;;;;;4.65;3.17;;;;;;;;;;6163872;28;20404;-82
2021/10/03 11:41:06;;;;;;;5.75;3.97;;;;;;;;;;6176060;28;20176;-82
2021/10/03 11:44:22;;;;;;;6.20;2.97;;;;;;;;;;6191380;28;20050;-83
2021/10/03 11:47:24;;;;;;;10.88;5.28;;;;;;;;;;6214812;28;20052;-82
2021/10/03 11:50:31;;;;;;;7.55;4.40;;;;;;;;;;6218386;28;20046;-82
2021/10/03 11:53:41;;;;;;;6.93;3.33;;;;;;;;;;6172206;28;20176;-83
2021/10/03 11:56:43;;;;;;;4.75;3.20;;;;;;;;;;6191419;28;20050;-84
2021/10/03 11:59:47;;;;;;;6.13;3.65;;;;;;;;;;6189631;28;20511;-83
2021/10/03 12:02:53;;;;;;;6.78;4.32;;;;;;;;;;6188641;28;20127;-83
2021/10/03 12:06:00;;;;;;;5.95;3.10;;;;;;;;;;6189926;28;20120;-84
2021/10/03 12:09:11;;;;;;;4.63;3.20;;;;;;;;;;6193683;28;20124;-82
2021/10/03 12:12:13;;;;;;;5.35;4.10;;;;;;;;;;6221892;28;20046;-83
2021/10/03 12:15:44;;;;;;;4.68;3.67;;;;;;;;;;6223592;28;20133;-83
2021/10/03 12:18:48;;;;;;;5.88;3.85;;;;;;;;;;6187278;28;20049;-84
2021/10/03 12:21:50;;;;;;;5.40;3.63;;;;;;;;;;6194050;28;20117;-84
2021/10/03 12:24:55;;;;;;;3.85;3.08;;;;;;;;;;6183586;28;20416;-84
2021/10/03 12:27:59;;;;;;;4.88;3.40;;;;;;;;;;6168319;28;20042;-83
2021/10/03 12:31:01;;;;;;;5.43;3.47;;;;;;;;;;6166524;28;20043;-82
2021/10/03 12:34:23;;;;;;;6.07;3.83;;;;;;;;;;6157602;28;20059;-82
2021/10/03 12:37:45;;;;;;;4.25;3.35;;;;;;;;;;6167728;28;20050;-83
2021/10/03 12:40:47;;;;;;;4.70;3.55;;;;;;;;;;6204978;28;20420;-82
2021/10/03 12:43:54;;;;;;;5.38;3.20;;;;;;;;;;6185916;28;20113;-82
2021/10/03 12:46:55;;;;;;;5.80;3.97;;;;;;;;;;6190748;28;20053;-83
2021/10/03 12:49:57;;;;;;;4.13;3.47;;;;;;;;;;6193616;28;20050;-84
2021/10/03 12:53:00;;;;;;;3.75;2.90;;;;;;;;;;6193565;28;20042;-83
2021/10/03 12:56:01;;;;;;;4.72;3.15;;;;;;;;;;6184219;28;20401;-82
2021/10/03 12:59:03;;;;;;;3.05;2.75;;;;;;;;;;6191085;28;20702;-83
2021/10/03 13:02:05;;;;;;;3.75;2.53;;;;;;;;;;6185745;28;20571;-82
2021/10/03 13:05:07;;;;;;;4.30;3.45;;;;;;;;;;6165672;28;20066;-83
2021/10/03 13:08:09;;;;;;;3.75;2.72;;;;;;;;;;6188790;28;20070;-83
2021/10/03 13:11:11;;;;;;;4.47;2.92;;;;;;;;;;6179714;28;20046;-81
2021/10/03 13:14:12;;;;;;;5.10;3.00;;;;;;;;;;6197453;28;20102;-81
2021/10/03 13:17:14;;;;;;;3.70;2.85;;;;;;;;;;6196115;28;20074;-82
2021/10/03 13:20:16;;;;;;;4.20;2.88;;;;;;;;;;6198611;28;20046;-82
2021/10/03 13:23:18;;;;;;;4.85;3.42;;;;;;;;;;6203589;28;20110;-82
2021/10/03 13:26:20;;;;;;;4.65;2.78;;;;;;;;;;6200480;28;20132;-82
2021/10/03 13:29:22;;;;;;;3.38;2.80;;;;;;;;;;6201848;28;20064;-82
2021/10/03 13:32:23;;;;;;;4.15;2.70;;;;;;;;;;6199398;28;20062;-82
2021/10/03 13:35:25;;;;;;;4.97;3.17;;;;;;;;;;6201803;28;20070;-82
2021/10/03 13:38:27;;;;;;;3.73;2.70;;;;;;;;;;6201374;28;20102;-83
2021/10/03 13:41:29;;;;;;;4.20;2.78;;;;;;;;;;6234024;28;20046;-81
2021/10/03 13:44:31;;;;;;;5.32;2.83;;;;;;;;;;6197526;28;20111;-83
2021/10/03 13:47:32;;;;;;;6.50;2.90;;;;;;;;;;6196101;28;20180;-81
2021/10/03 13:50:34;;;;;;;5.88;3.10;;;;;;;;;;6181637;28;20110;-82
2021/10/03 13:53:36;;;;;;;4.13;3.10;;;;;;;;;;6195496;28;20054;-83
2021/10/03 13:56:38;;;;;;;3.53;2.35;;;;;;;;;;6192177;28;20046;-82
2021/10/03 13:59:40;;;;;;;4.25;2.97;;;;;;;;;;6186634;28;20046;-83
2021/10/03 14:02:44;;;;;;;4.45;2.78;;;;;;;;;;6190606;28;20131;-83
2021/10/03 14:05:46;;;;;;;3.85;2.95;;;;;;;;;;6227915;28;20038;-83
2021/10/03 14:08:48;;;;;;;5.55;2.90;;;;;;;;;;6200319;28;20046;-82
2021/10/03 14:11:49;;;;;;;4.97;3.05;;;;;;;;;;6215859;28;20049;-85
2021/10/03 14:14:52;;;;;;;3.72;2.78;;;;;;;;;;6195672;28;20117;-84
2021/10/03 14:17:54;;;;;;;4.28;3.10;;;;;;;;;;6180850;28;20044;-87
2021/10/03 14:20:55;;;;;;;4.07;2.78;;;;;;;;;;6198470;28;20061;-86
2021/10/03 14:23:57;;;;;;;4.97;2.75;;;;;;;;;;6190090;28;20140;-82
2021/10/03 14:26:58;;;;;;;5.28;3.00;;;;;;;;;;6198436;28;20561;-83
2021/10/03 14:30:00;;;;;;;4.68;2.53;;;;;;;;;;6201475;28;20042;-83
2021/10/03 14:33:05;;;;;;;4.43;2.55;;;;;;;;;;6177371;28;20038;-82
2021/10/03 14:36:07;;;;;;;10.25;3.08;;;;;;;;;;6190820;28;20065;-84
2021/10/03 14:39:10;;;;;;;4.77;2.90;;;;;;;;;;6230836;28;20054;-83
2021/10/03 14:42:11;;;;;;;4.38;2.90;;;;;;;;;;6230749;28;20133;-83
2021/10/03 14:45:21;;;;;;;6.50;2.70;;;;;;;;;;6198829;28;20615;-82
2021/10/03 14:48:23;;;;;;;4.72;2.67;;;;;;;;;;6197901;28;20050;-83
2021/10/03 14:51:24;;;;;;;6.15;2.80;;;;;;;;;;6199675;28;20105;-83
2021/10/03 14:54:26;;;;;;;4.35;2.30;;;;;;;;;;6198143;28;20066;-83
2021/10/03 14:57:28;;;;;;;3.30;2.28;;;;;;;;;;6216181;28;20082;-84
2021/10/03 15:00:30;;;;;;;4.22;2.80;;;;;;;;;;6197860;28;20125;-83
2021/10/03 15:03:32;;;;;;;3.92;2.28;;;;;;;;;;6191836;28;20147;-84
2021/10/03 15:06:34;;;;;;;5.28;2.25;;;;;;;;;;6197152;28;20050;-83
2021/10/03 15:09:35;;;;;;;3.25;2.20;;;;;;;;;;6228612;28;20046;-82
2021/10/03 15:12:38;;;;;;;3.05;2.17;;;;;;;;;;6198805;28;20102;-84
2021/10/03 15:15:40;;;;;;;5.18;2.10;;;;;;;;;;6235324;28;20080;-85
2021/10/03 15:18:41;;;;;;;6.10;2.83;;;;;;;;;;6162989;28;20055;-82
2021/10/03 15:21:44;;;;;;;2.63;1.98;;;;;;;;;;6180134;28;20062;-83
2021/10/03 15:24:45;;;;;;;3.38;2.38;;;;;;;;;;6199367;28;20108;-84
2021/10/03 15:27:49;;;;;;;2.42;2.10;;;;;;;;;;6203067;28;20050;-83
2021/10/03 15:30:50;;;;;;;3.55;2.08;;;;;;;;;;6204013;28;20159;-83
2021/10/03 15:33:52;;;;;;;3.08;1.83;;;;;;;;;;6201559;28;20411;-84
2021/10/03 15:36:53;;;;;;;3.55;2.38;;;;;;;;;;6186732;28;20122;-83
2021/10/03 15:39:55;;;;;;;4.18;2.35;;;;;;;;;;6201005;28;20056;-84
2021/10/03 15:42:57;;;;;;;5.07;2.20;;;;;;;;;;6200048;28;20056;-85
2021/10/03 15:45:59;;;;;;;3.80;2.03;;;;;;;;;;6232097;28;20046;-84
2021/10/03 15:49:01;;;;;;;4.63;2.40;;;;;;;;;;6188603;28;20173;-84
2021/10/03 15:52:03;;;;;;;2.80;2.05;;;;;;;;;;6188145;28;20121;-83
2021/10/03 15:55:06;;;;;;;2.53;2.15;;;;;;;;;;6190255;28;20635;-84
2021/10/03 15:58:08;;;;;;;3.13;2.13;;;;;;;;;;6176940;28;20054;-85
2021/10/03 16:01:15;;;;;;;3.72;3.10;;;;;;;;;;6191079;28;20116;-84
2021/10/03 16:04:17;;;;;;;2.58;2.00;;;;;;;;;;6195111;28;20050;-83
2021/10/03 16:07:19;;;;;;;3.45;2.45;;;;;;;;;;6184326;28;20061;-85
2021/10/03 16:10:21;;;;;;;2.87;2.03;;;;;;;;;;6201852;28;20049;-84
2021/10/03 16:13:22;;;;;;;2.70;1.73;;;;;;;;;;6193371;28;20492;-85
2021/10/03 16:16:24;;;;;;;5.85;1.77;;;;;;;;;;6196130;28;20149;-83
2021/10/03 16:19:26;;;;;;;2.05;1.40;;;;;;;;;;6176986;28;20245;-83
2021/10/03 16:22:27;;;;;;;3.08;1.65;;;;;;;;;;6179453;28;20105;-84
2021/10/03 16:25:29;;;;;;;1.67;1.30;;;;;;;;;;6174387;28;20186;-84
2021/10/03 16:28:31;;;;;;;1.35;1.20;;;;;;;;;;6192047;28;20049;-83
2021/10/03 16:31:33;;;;;;;2.20;1.23;;;;;;;;;;6203370;28;20046;-85
2021/10/03 16:34:36;;;;;;;1.85;1.10;;;;;;;;;;6189012;28;20086;-84
2021/10/03 16:37:40;;;;;;;2.90;1.10;;;;;;;;;;6190098;28;20080;-85
2021/10/03 16:40:44;;;;;;;0.93;0.80;;;;;;;;;;6200880;28;20368;-85
2021/10/03 16:43:46;;;;;;;1.70;1.20;;;;;;;;;;6196565;28;20129;-85
2021/10/03 16:46:50;;;;;;;1.35;1.13;;;;;;;;;;6199596;28;20090;-85
2021/10/03 16:49:52;;;;;;;1.30;0.90;;;;;;;;;;6192507;28;20451;-86
2021/10/03 16:52:54;;;;;;;0.90;0.70;;;;;;;;;;6185819;28;20424;-85
2021/10/03 16:55:55;;;;;;;1.08;0.93;;;;;;;;;;6190343;28;20058;-85
2021/10/03 16:58:57;;;;;;;1.30;1.00;;;;;;;;;;6188085;28;20050;-85
2021/10/03 17:01:59;;;;;;;1.08;0.90;;;;;;;;;;6213554;28;20414;-85
2021/10/03 17:05:01;;;;;;;3.33;1.80;;;;;;;;;;6224813;28;20054;-84
2021/10/03 17:08:03;;;;;;;2.03;1.00;;;;;;;;;;6192054;28;20042;-84
2021/10/03 17:11:04;;;;;;;3.38;1.70;;;;;;;;;;6195310;28;20069;-85
2021/10/03 17:14:06;;;;;;;1.33;1.17;;;;;;;;;;6219035;28;20109;-84
2021/10/03 17:17:08;;;;;;;1.95;1.33;;;;;;;;;;6213794;28;20038;-85
2021/10/03 17:20:10;;;;;;;1.88;0.98;;;;;;;;;;6184801;28;20109;-85
2021/10/03 17:23:12;;;;;;;2.10;1.20;;;;;;;;;;6201863;28;20062;-85
2021/10/03 17:26:14;;;;;;;1.25;0.93;;;;;;;;;;6200038;28;20446;-85
2021/10/03 17:29:15;;;;;;;1.00;0.88;;;;;;;;;;6203665;28;20117;-84
2021/10/03 17:32:18;;;;;;;5.80;3.47;;;;;;;;;;6199977;28;20049;-85
2021/10/03 17:35:20;;;;;;;5.00;3.50;;;;;;;;;;6193718;28;20050;-85
2021/10/03 17:38:21;;;;;;;1.48;1.10;;;;;;;;;;6190849;28;20050;-85
2021/10/03 17:41:23;;;;;;;2.45;1.70;;;;;;;;;;6208007;28;20101;-85
2021/10/03 17:44:25;;;;;;;3.67;2.67;;;;;;;;;;6187185;28;20161;-84
2021/10/03 17:47:26;;;;;;;2.05;1.20;;;;;;;;;;6190138;28;20181;-83
2021/10/03 17:50:28;;;;;;;2.30;1.85;;;;;;;;;;6192402;28;20129;-82
2021/10/03 17:53:30;;;;;;;1.20;1.00;;;;;;;;;;6184954;28;20057;-84
2021/10/03 17:56:32;;;;;;;1.48;0.90;;;;;;;;;;6220141;28;20042;-83
2021/10/03 17:59:35;;;;;;;1.20;1.10;;;;;;;;;;6200453;28;20053;-83
2021/10/03 18:02:37;;;;;;;;;;;;;;;;;;6185301;28;20137;-83
2021/10/03 18:05:38;;;;;;;2.25;1.17;;;;;;;;;;6205569;28;19933;-83
2021/10/03 18:08:40;;;;;;;0.98;0.90;;;;;;;;;;6187133;28;20050;-84
2021/10/03 18:11:42;;;;;;;0.77;0.77;;;;;;;;;;6188052;28;20054;-83
2021/10/03 18:14:43;;;;;;;1.30;0.73;;;;;;;;;;6197637;28;20109;-83
2021/10/03 18:17:45;;;;;;;1.00;0.90;;;;;;;;;;6191334;28;20042;-83